M I D A S
Marine Information and Data Acquisition System
Tripno 1479 of the Zeeleeuw from 2008-05-05 14:10:10 to 2008-05-05 14:39:50
Back to CruiseResearch ActivitiesStationsMapUnderway DataData graphs

EquipmentUnitsComment
TimeDGPSUTC
LatitudeDGPSDM.mWGS84
LongitudeDGPSDM.mWGS84
HeadingGyrodeg 
SOGDGPSknotsSpeed over ground
COGDGPSdegCourse over ground
DepthEcho soundermeters200 kHz
Missing or incorrect values are displayed as -999
Navigation data collected by the RV Zeeleeuw from 2008-05-05 09:10:15 to 2008-05-05 14:53:45
Time Latitude Longitude Heading SOG COG Depth
2008-05-05 09:11:19 51°14.562 2°54.279 98.2 11.5 102 10.8
2008-05-05 09:12:20 51°14.512 2°54.576 103 11.1 108 10.5
2008-05-05 09:13:19 51°14.441 2°54.816 112.3 9 115 10.9
2008-05-05 09:14:20 51°14.375 2°55.021 116.9 8.6 120 11.1
2008-05-05 09:15:20 51°14.293 2°55.21 128.3 8.7 129 10.4
2008-05-05 09:16:20 51°14.192 2°55.368 142.5 8.4 145 -999
2008-05-05 09:17:20 51°14.081 2°55.463 155.6 6.2 156 -999
2008-05-05 09:18:20 51°14.004 2°55.518 154.9 4.6 155 -999
2008-05-05 09:19:20 51°13.928 2°55.57 156.7 5.3 157 -999
2008-05-05 09:20:19 51°13.847 2°55.626 156 5.5 156 10.5
2008-05-05 09:21:20 51°13.773 2°55.686 145.3 4.2 144 -999
2008-05-05 09:22:20 51°13.733 2°55.762 124.2 3.7 125 -999
2008-05-05 09:23:20 51°13.703 2°55.845 118 3.6 116 7.4
2008-05-05 09:24:20 51°13.679 2°55.921 120.4 2.8 119 6.7
2008-05-05 09:25:20 51°13.668 2°55.951 124.1 0.6 127 6.8
2008-05-05 09:26:20 51°13.666 2°55.955 114.4 0.1 45 6.8
2008-05-05 09:27:19 51°13.667 2°55.955 125.4 -999 303 6.7
2008-05-05 09:28:20 51°13.667 2°55.955 126.7 -999 252 6.8
2008-05-05 09:29:20 51°13.668 2°55.955 129.4 -999 198 6.8
2008-05-05 09:30:20 51°13.668 2°55.955 127.8 -999 334 6.7
2008-05-05 09:31:19 51°13.667 2°55.955 126.6 -999 214 6.8
2008-05-05 09:32:20 51°13.666 2°55.955 126.2 -999 145 6.7
2008-05-05 09:33:20 51°13.667 2°55.955 126.5 -999 73 6.8
2008-05-05 09:34:20 51°13.666 2°55.955 126.7 0.1 42 7
2008-05-05 09:35:20 51°13.666 2°55.956 128.1 -999 228 7
2008-05-05 09:36:20 51°13.666 2°55.955 127 -999 59 6.9
2008-05-05 09:37:20 51°13.665 2°55.955 127.1 -999 296 6.9
2008-05-05 09:38:20 51°13.665 2°55.954 126.4 0.1 191 6.9
2008-05-05 09:39:20 51°13.666 2°55.955 127.3 -999 353 5.3
2008-05-05 09:40:19 51°13.667 2°55.955 126.2 -999 115 -999
2008-05-05 09:41:20 51°13.667 2°55.955 127 -999 240 7.1
2008-05-05 09:42:20 51°13.666 2°55.955 127.3 -999 247 7.1
2008-05-05 09:43:20 51°13.667 2°55.955 125.7 -999 281 7.1
2008-05-05 09:44:20 51°13.666 2°55.955 127 -999 166 7.1
2008-05-05 09:45:19 51°13.666 2°55.954 127.4 -999 2 7.2
2008-05-05 09:46:20 51°13.666 2°55.954 125.5 -999 43 7
2008-05-05 09:47:20 51°13.666 2°55.954 126.2 -999 49 7.3
2008-05-05 09:48:20 51°13.666 2°55.954 126.1 -999 63 7
2008-05-05 09:49:20 51°13.666 2°55.953 126.3 -999 236 7.2
2008-05-05 09:50:20 51°13.666 2°55.954 126.5 -999 32 7.3
2008-05-05 09:51:20 51°13.666 2°55.954 125.5 -999 137 7.4
2008-05-05 09:52:20 51°13.665 2°55.954 125.9 -999 251 5.5
2008-05-05 09:53:20 51°13.665 2°55.954 125.8 -999 87 7.3
2008-05-05 09:54:20 51°13.665 2°55.954 125.5 -999 309 7.4
2008-05-05 09:55:20 51°13.665 2°55.954 125.8 -999 156 7.5
2008-05-05 09:56:20 51°13.665 2°55.954 126.3 -999 121 7.5
2008-05-05 09:57:20 51°13.665 2°55.955 126.5 -999 218 7.4
2008-05-05 09:58:20 51°13.665 2°55.954 126.3 -999 146 7.6
2008-05-05 09:59:20 51°13.665 2°55.954 126.8 -999 192 7.6
2008-05-05 10:00:20 51°13.666 2°55.954 125.9 -999 33 7.7
2008-05-05 10:01:20 51°13.665 2°55.954 125.4 -999 87 7.6
2008-05-05 10:02:20 51°13.665 2°55.954 126.2 -999 122 7.7
2008-05-05 10:03:20 51°13.665 2°55.955 126.6 -999 343 7.8
2008-05-05 10:04:20 51°13.665 2°55.955 127 -999 343 7.8
2008-05-05 10:05:20 51°13.665 2°55.954 125.9 0.1 229 7.8
2008-05-05 10:06:20 51°13.665 2°55.954 127.8 -999 20 7.9
2008-05-05 10:07:20 51°13.665 2°55.954 126.7 -999 33 7.9
2008-05-05 10:08:20 51°13.665 2°55.955 126.7 -999 63 7.9
2008-05-05 10:09:20 51°13.665 2°55.953 126.1 -999 294 8
2008-05-05 10:10:20 51°13.665 2°55.954 126.4 -999 81 7.8
2008-05-05 10:11:20 51°13.665 2°55.954 127 -999 68 8.1
2008-05-05 10:12:19 51°13.665 2°55.954 127.3 -999 47 8.1
2008-05-05 10:13:20 51°13.665 2°55.954 126.7 -999 202 8.1
2008-05-05 10:14:20 51°13.665 2°55.954 126.8 -999 308 8.1
2008-05-05 10:15:20 51°13.665 2°55.954 125.5 -999 197 -999
2008-05-05 10:16:20 51°13.665 2°55.954 125.5 -999 221 8.3
2008-05-05 10:17:20 51°13.665 2°55.955 126 -999 167 8.3
2008-05-05 10:18:20 51°13.665 2°55.956 126.7 -999 158 8.2
2008-05-05 10:19:20 51°13.665 2°55.955 125.7 -999 227 8.2
2008-05-05 10:20:20 51°13.665 2°55.955 126.8 -999 230 8.4
2008-05-05 10:21:20 51°13.666 2°55.955 126.2 -999 224 8.3
2008-05-05 10:22:20 51°13.666 2°55.955 126.6 -999 292 8.4
2008-05-05 10:23:20 51°13.665 2°55.955 127 -999 88 8.6
2008-05-05 10:24:20 51°13.665 2°55.954 127.2 -999 84 8.5
2008-05-05 10:25:20 51°13.665 2°55.955 127.5 -999 54 8.6
2008-05-05 10:26:20 51°13.665 2°55.955 128.1 -999 263 8.7
2008-05-05 10:27:20 51°13.665 2°55.955 126.8 -999 294 8.6
2008-05-05 10:28:20 51°13.665 2°55.955 126.6 -999 181 8.5
2008-05-05 10:29:20 51°13.665 2°55.955 126.5 -999 14 8.5
2008-05-05 10:30:20 51°13.665 2°55.955 127.2 -999 129 8.7
2008-05-05 10:31:20 51°13.666 2°55.955 127.1 -999 272 8.8
2008-05-05 10:32:20 51°13.665 2°55.954 128.6 0.1 275 8.9
2008-05-05 10:33:20 51°13.665 2°55.953 127.8 -999 316 8.8
2008-05-05 10:34:20 51°13.665 2°55.953 128.4 -999 25 8.8
2008-05-05 10:35:20 51°13.666 2°55.954 128.2 -999 255 8.9
2008-05-05 10:36:20 51°13.666 2°55.954 128.8 -999 12 9
2008-05-05 10:37:20 51°13.666 2°55.954 127.7 -999 304 9.1
2008-05-05 10:38:20 51°13.666 2°55.952 127.6 -999 150 8.8
2008-05-05 10:39:20 51°13.666 2°55.953 129.4 -999 210 9.1
2008-05-05 10:40:20 51°13.666 2°55.953 129.8 -999 280 -999
2008-05-05 10:41:20 51°13.666 2°55.954 127.2 0.1 240 9.1
2008-05-05 10:42:20 51°13.666 2°55.954 127.7 -999 7 9.1
2008-05-05 10:43:20 51°13.667 2°55.954 127.4 -999 32 9.1
2008-05-05 10:44:20 51°13.667 2°55.955 127.2 -999 291 9
2008-05-05 10:45:20 51°13.667 2°55.956 127.1 -999 327 -999
2008-05-05 10:46:20 51°13.667 2°55.955 126.5 -999 190 9.2
2008-05-05 10:47:20 51°13.666 2°55.955 129 -999 111 9.3
2008-05-05 10:48:20 51°13.666 2°55.955 129.3 -999 26 9.3
2008-05-05 10:49:20 51°13.666 2°55.955 128.7 -999 321 9.3
2008-05-05 10:50:20 51°13.666 2°55.955 127.7 -999 272 9.1
2008-05-05 10:51:20 51°13.666 2°55.955 127 -999 312 9.3
2008-05-05 10:52:20 51°13.666 2°55.954 126.1 -999 55 9.3
2008-05-05 10:53:20 51°13.666 2°55.954 127.4 -999 250 9.2
2008-05-05 10:54:20 51°13.667 2°55.954 126.2 0.1 352 9.4
2008-05-05 10:55:20 51°13.666 2°55.954 126.4 -999 94 9.3
2008-05-05 10:56:20 51°13.667 2°55.953 128.1 0.1 315 9.4
2008-05-05 10:57:20 51°13.666 2°55.953 127.1 -999 171 9.4
2008-05-05 10:58:20 51°13.666 2°55.953 128.9 -999 219 9.5
2008-05-05 10:59:20 51°13.666 2°55.953 129.2 -999 24 9.5
2008-05-05 11:00:20 51°13.666 2°55.953 128.4 -999 356 9.4
2008-05-05 11:01:20 51°13.666 2°55.953 128 -999 192 9.6
2008-05-05 11:02:20 51°13.666 2°55.953 127.5 -999 94 9.4
2008-05-05 11:03:20 51°13.665 2°55.952 129.1 -999 167 9.6
2008-05-05 11:04:20 51°13.666 2°55.952 129.3 -999 214 9.6
2008-05-05 11:05:20 51°13.666 2°55.952 128 -999 317 9.3
2008-05-05 11:06:20 51°13.666 2°55.953 127.1 -999 189 9.5
2008-05-05 11:07:20 51°13.666 2°55.953 128.2 -999 9 9.3
2008-05-05 11:08:20 51°13.667 2°55.955 128.4 -999 34 -999
2008-05-05 11:09:20 51°13.666 2°55.954 127.8 -999 255 9.4
2008-05-05 11:10:20 51°13.667 2°55.953 128.4 -999 277 9.6
2008-05-05 11:11:20 51°13.666 2°55.953 128.6 -999 244 9.6
2008-05-05 11:12:20 51°13.667 2°55.953 126.9 -999 339 9.6
2008-05-05 11:13:20 51°13.666 2°55.953 126.7 -999 251 9.5
2008-05-05 11:14:20 51°13.665 2°55.955 128.7 -999 282 9.6
2008-05-05 11:15:20 51°13.665 2°55.956 121.1 -999 200 9.5
2008-05-05 11:16:19 51°13.665 2°55.956 113.8 0.1 304 9.7
2008-05-05 11:17:20 51°13.68 2°55.911 113.5 3.5 296 -999
2008-05-05 11:18:20 51°13.699 2°55.826 101.6 3.1 283 -999
2008-05-05 11:19:19 51°13.704 2°55.761 90.3 1.5 277 16.7
2008-05-05 11:20:20 51°13.705 2°55.754 51.6 1.6 239 17.1
2008-05-05 11:21:19 51°13.713 2°55.74 3.1 3.2 355 16.6
2008-05-05 11:22:20 51°13.768 2°55.702 328.3 4.1 329 12.3
2008-05-05 11:23:20 51°13.847 2°55.624 331.5 6.3 332 13.2
2008-05-05 11:24:20 51°13.94 2°55.554 337.5 5.9 337 -999
2008-05-05 11:25:20 51°14.028 2°55.495 336.9 5.7 337 -999
2008-05-05 11:26:20 51°14.114 2°55.433 336 5.9 335 -999
2008-05-05 11:27:20 51°14.208 2°55.336 321.2 7.1 320 14
2008-05-05 11:28:20 51°14.294 2°55.194 313.1 7.9 312 13.3
2008-05-05 11:29:20 51°14.376 2°55.02 303.1 8.8 308 14.4
2008-05-05 11:30:19 51°14.477 2°54.816 297.3 11 304 13.8
2008-05-05 11:31:20 51°14.511 2°54.537 263.1 10.4 264 13.6
2008-05-05 11:32:19 51°14.458 2°54.279 245.6 10.5 249 13.5
2008-05-05 11:33:20 51°14.395 2°54.015 247.1 10.4 251 12.8
2008-05-05 11:34:20 51°14.343 2°53.751 249.9 10.4 252 12.9
2008-05-05 11:35:20 51°14.277 2°53.499 243.6 10.3 247 13
2008-05-05 11:36:20 51°14.219 2°53.242 247.4 10.3 249 13.4
2008-05-05 11:37:20 51°14.159 2°52.987 244.9 10.3 246 13.8
2008-05-05 11:38:20 51°14.094 2°52.753 244.1 8.5 246 13.9
2008-05-05 11:39:20 51°14.019 2°52.533 238.7 9.9 240 13.8
2008-05-05 11:40:20 51°13.941 2°52.302 240.5 9.9 241 13.8
2008-05-05 11:41:19 51°13.856 2°52.081 237.9 10 239 13.8
2008-05-05 11:42:20 51°13.767 2°51.851 238.4 10.1 238 14
2008-05-05 11:43:20 51°13.673 2°51.629 234.4 10.1 233 14.1
2008-05-05 11:44:20 51°13.577 2°51.408 237.4 10.2 238 14.2
2008-05-05 11:45:20 51°13.486 2°51.179 235.8 10.2 236 14.3
2008-05-05 11:46:19 51°13.399 2°50.951 241.6 10.3 241 14.4
2008-05-05 11:47:20 51°13.308 2°50.718 237.6 10.2 237 14.5
2008-05-05 11:48:20 51°13.215 2°50.492 238.6 10.3 238 14.5
2008-05-05 11:49:20 51°13.125 2°50.262 238 10.2 237 14.7
2008-05-05 11:50:20 51°13.038 2°50.028 239.4 10.2 236 14.8
2008-05-05 11:51:20 51°12.93 2°49.816 232.7 10.3 232 14.8
2008-05-05 11:52:20 51°12.836 2°49.589 240 10.4 237 14.8
2008-05-05 11:53:20 51°12.743 2°49.359 236.8 10.4 235 15
2008-05-05 11:54:20 51°12.651 2°49.126 239.8 10.4 238 15
2008-05-05 11:55:20 51°12.554 2°48.899 235.8 10.4 235 15.1
2008-05-05 11:56:20 51°12.471 2°48.658 244.5 10.4 244 15.2
2008-05-05 11:57:20 51°12.39 2°48.415 242.2 10.4 240 15.3
2008-05-05 11:57:40 51°20.63 2°38.693 126.4 -999 -999 4.7
2008-05-05 11:58:30 51°12.301 2°48.126 246.7 10.5 247 15.4
2008-05-05 11:59:31 51°12.234 2°47.865 247.9 10.5 248 15.5
2008-05-05 12:00:31 51°12.169 2°47.608 248.1 10.4 248 15.6
2008-05-05 12:01:30 51°12.099 2°47.36 244.8 10.4 244 15.8
2008-05-05 12:02:31 51°12.031 2°47.102 248.9 10.4 249 15.8
2008-05-05 12:03:30 51°11.973 2°46.847 251.2 10.5 251 15.9
2008-05-05 12:04:30 51°11.919 2°46.584 251.9 10.4 252 16
2008-05-05 12:05:30 51°11.87 2°46.317 254.8 10.5 256 16
2008-05-05 12:06:30 51°11.824 2°46.048 254.4 10.5 254 16.1
2008-05-05 12:07:30 51°11.77 2°45.782 250.3 10.5 251 16.1
2008-05-05 12:08:30 51°11.736 2°45.507 263.2 10.7 265 16.1
2008-05-05 12:09:30 51°11.704 2°45.23 256.9 10.6 259 16.1
2008-05-05 12:10:30 51°11.669 2°44.954 256.8 10.6 259 16
2008-05-05 12:11:30 51°11.635 2°44.678 257.6 10.6 259 15.9
2008-05-05 12:12:30 51°11.603 2°44.401 258 10.7 262 15.7
2008-05-05 12:13:30 51°11.581 2°44.119 260.8 10.8 263 15.5
2008-05-05 12:14:30 51°11.558 2°43.838 260 10.7 262 15.2
2008-05-05 12:15:30 51°11.534 2°43.556 259.5 10.8 262 15
2008-05-05 12:16:30 51°11.497 2°43.278 254.8 10.7 258 14.7
2008-05-05 12:17:30 51°11.453 2°43.005 251.2 10.7 254 14.6
2008-05-05 12:18:30 51°11.39 2°42.741 247.5 10.6 249 14.5
2008-05-05 12:19:30 51°11.309 2°42.491 238.5 10.7 239 14.7
2008-05-05 12:20:30 51°11.217 2°42.25 236 10.6 236 15
2008-05-05 12:21:30 51°11.123 2°42.012 237.8 10.7 240 15.1
2008-05-05 12:22:30 51°11.046 2°41.758 242.8 10.6 243 15.2
2008-05-05 12:23:30 51°10.962 2°41.509 240 10.7 241 15.4
2008-05-05 12:24:30 51°10.883 2°41.259 241.1 10.6 243 15.4
2008-05-05 12:25:30 51°10.81 2°41.004 243.2 10.6 244 15.6
2008-05-05 12:26:30 51°10.731 2°40.753 241.7 10.6 242 15.9
2008-05-05 12:27:30 51°10.65 2°40.504 240.4 10.5 239 16.2
2008-05-05 12:28:30 51°10.552 2°40.272 233.1 10.6 235 16.5
2008-05-05 12:29:30 51°10.459 2°40.033 237.9 10.6 241 16.7
2008-05-05 12:30:30 51°10.368 2°39.792 235.7 10.5 236 16.7
2008-05-05 12:31:30 51°10.278 2°39.552 238.7 10.6 240 17.1
2008-05-05 12:32:30 51°10.221 2°39.401 237.1 3.5 241 17.4
2008-05-05 12:33:30 51°10.226 2°39.378 288.2 1 29 17.5
2008-05-05 12:34:30 51°10.242 2°39.397 309.6 1.3 40 17.5
2008-05-05 12:35:30 51°10.257 2°39.422 315.2 1.3 48 17.6
2008-05-05 12:36:30 51°10.271 2°39.448 314.5 1.3 52 17.6
2008-05-05 12:37:30 51°10.284 2°39.474 313.4 1.3 57 17.5
2008-05-05 12:38:30 51°10.296 2°39.502 313.4 1.3 57 17.5
2008-05-05 12:39:30 51°10.307 2°39.53 312 1.2 59 17.4
2008-05-05 12:40:30 51°10.317 2°39.558 310.5 1.2 62 17.3
2008-05-05 12:41:30 51°10.327 2°39.587 307.8 1.2 63 17.2
2008-05-05 12:42:30 51°10.336 2°39.615 305.4 1.2 63 17.2
2008-05-05 12:43:30 51°10.345 2°39.644 303.1 1.2 62 17.1
2008-05-05 12:44:30 51°10.354 2°39.674 301.2 1.2 63 17
2008-05-05 12:45:30 51°10.366 2°39.693 290.5 1.2 339 17.1
2008-05-05 12:46:30 51°10.362 2°39.667 224.2 1.2 200 17.1
2008-05-05 12:47:30 51°10.327 2°39.653 212.2 3.5 201 17
2008-05-05 12:48:30 51°10.286 2°39.61 232.3 2 226 17
2008-05-05 12:49:30 51°10.271 2°39.558 251.7 1.9 261 17
2008-05-05 12:50:30 51°10.269 2°39.496 256.1 2.9 261 17.2
2008-05-05 12:51:30 51°10.256 2°39.414 248.7 3.2 252 17.4
2008-05-05 12:52:30 51°10.241 2°39.333 249.7 3.2 254 17.5
2008-05-05 12:53:30 51°10.228 2°39.253 251 3 255 17.6
2008-05-05 12:54:30 51°10.203 2°39.189 234.7 2.9 234 17.6
2008-05-05 12:55:30 51°10.177 2°39.122 240.8 3 241 17.7
2008-05-05 12:56:30 51°10.154 2°39.051 241.9 3 242 17.8
2008-05-05 12:57:30 51°10.131 2°38.977 242.4 3.1 244 17.8
2008-05-05 12:58:30 51°10.108 2°38.905 242.8 3 243 17.8
2008-05-05 12:59:30 51°10.086 2°38.831 244.3 3.1 246 17.8
2008-05-05 13:00:30 51°10.066 2°38.757 245.9 3 247 17.9
2008-05-05 13:01:30 51°10.047 2°38.685 244.6 3 246 17.9
2008-05-05 13:02:30 51°10.026 2°38.612 244.6 3 246 17.9
2008-05-05 13:03:30 51°10.005 2°38.539 243.7 3.1 243 18.1
2008-05-05 13:04:30 51°9.984 2°38.464 244.5 3.1 247 18
2008-05-05 13:05:30 51°9.963 2°38.389 245 3.1 246 18.1
2008-05-05 13:06:30 51°9.941 2°38.314 244.2 3.1 246 18.2
2008-05-05 13:07:30 51°9.921 2°38.235 246.8 3.2 248 18.2
2008-05-05 13:08:30 51°9.902 2°38.156 247.1 3.2 249 18.4
2008-05-05 13:09:30 51°9.884 2°38.076 248.5 3.3 251 18.6
2008-05-05 13:10:30 51°9.866 2°37.996 247.7 3.2 251 18.5
2008-05-05 13:11:30 51°9.849 2°37.917 248.2 2.9 253 19
2008-05-05 13:12:30 51°9.837 2°37.848 248.5 2.6 254 18.9
2008-05-05 13:13:30 51°9.825 2°37.782 248.6 2.5 255 18.4
2008-05-05 13:14:30 51°9.813 2°37.717 246.7 2.6 250 19
2008-05-05 13:15:30 51°9.798 2°37.646 247 2.9 250 19.1
2008-05-05 13:16:30 51°9.782 2°37.574 246.6 2.9 251 19.2
2008-05-05 13:17:30 51°9.766 2°37.503 247.4 2.9 252 19.1
2008-05-05 13:18:30 51°9.751 2°37.43 247 2.9 252 19.1
2008-05-05 13:19:30 51°9.734 2°37.359 246.7 2.9 249 19
2008-05-05 13:20:30 51°9.716 2°37.288 246.7 2.9 250 19
2008-05-05 13:21:30 51°9.701 2°37.214 246.3 2.9 247 19
2008-05-05 13:22:30 51°9.686 2°37.14 255.9 3 264 18.9
2008-05-05 13:23:30 51°9.693 2°37.064 278.6 3 293 18.7
2008-05-05 13:24:30 51°9.734 2°37.005 308.7 3.5 331 19.2
2008-05-05 13:25:30 51°9.788 2°36.976 327 3.2 348 19.1
2008-05-05 13:26:30 51°9.834 2°36.967 339.2 2.6 359 19.5
2008-05-05 13:27:30 51°9.874 2°36.973 351.2 2.1 11 20
2008-05-05 13:28:30 51°9.902 2°36.982 344.5 1.4 9 20.2
2008-05-05 13:29:30 51°9.921 2°36.984 333.5 1 5 19.9
2008-05-05 13:30:30 51°9.935 2°36.988 332.3 0.8 14 20.3
2008-05-05 13:31:30 51°9.96 2°36.991 352.4 3.2 9 20.1
2008-05-05 13:32:30 51°10.027 2°37.099 56.1 8.4 54 20.5
2008-05-05 13:33:30 51°10.128 2°37.329 63.2 11.6 66 20.3
2008-05-05 13:34:30 51°10.184 2°37.643 80.7 13.1 77 20.2
2008-05-05 13:35:30 51°10.248 2°37.974 66.6 13.1 60 19.3
2008-05-05 13:36:30 51°10.37 2°38.272 61.6 13.5 61 19.1
2008-05-05 13:37:30 51°10.459 2°38.6 72.3 13.5 69 18.8
2008-05-05 13:38:30 51°10.539 2°38.931 71.7 13.4 68 18.3
2008-05-05 13:39:30 51°10.622 2°39.259 71.5 13.3 68 17.9
2008-05-05 13:40:30 51°10.706 2°39.586 71.3 13.4 68 17.1
2008-05-05 13:41:30 51°10.793 2°39.912 70 13.4 65 16.7
2008-05-05 13:42:30 51°10.887 2°40.232 67.9 13.3 65 16.1
2008-05-05 13:43:30 51°10.971 2°40.56 74.5 13.4 71 15.5
2008-05-05 13:44:30 51°11.041 2°40.896 75.6 13.3 72 15.1
2008-05-05 13:45:30 51°11.109 2°41.234 76.2 13.3 73 14.8
2008-05-05 13:46:30 51°11.175 2°41.57 75.6 13.3 73 14.3
2008-05-05 13:47:30 51°11.241 2°41.906 75.9 13.3 72 14.3
2008-05-05 13:48:30 51°11.307 2°42.24 75.7 13.2 73 14.1
2008-05-05 13:49:30 51°11.364 2°42.577 78.5 13.1 76 13.8
2008-05-05 13:50:30 51°11.421 2°42.913 78 13.1 74 13.7
2008-05-05 13:51:30 51°11.481 2°43.248 77.8 13.2 76 13.7
2008-05-05 13:52:30 51°11.532 2°43.587 80.4 13.1 76 14.2
2008-05-05 13:53:30 51°11.583 2°43.925 79.9 13.1 76 14.3
2008-05-05 13:54:30 51°11.646 2°44.259 76.6 13.1 73 14.4
2008-05-05 13:55:30 51°11.704 2°44.594 77.9 13.1 74 14.5
2008-05-05 13:56:30 51°11.765 2°44.926 77 13.1 74 14.6
2008-05-05 13:57:30 51°11.82 2°45.262 80.9 13.1 77 14.8
2008-05-05 13:58:30 51°11.866 2°45.601 80.9 13 78 15
2008-05-05 13:59:30 51°11.919 2°45.936 77.5 13.1 75 15
2008-05-05 14:00:30 51°11.977 2°46.269 77.6 13 75 15
2008-05-05 14:01:30 51°12.031 2°46.604 78.9 13 76 15
2008-05-05 14:02:30 51°12.083 2°46.94 78.7 13.1 77 14.9
2008-05-05 14:03:30 51°12.132 2°47.276 80.3 13 75 14.7
2008-05-05 14:04:30 51°12.214 2°47.596 65.7 13 63 14.6
2008-05-05 14:05:30 51°12.319 2°47.899 62.3 13.1 61 14.6
2008-05-05 14:06:30 51°12.423 2°48.203 63.1 13 62 14.4
2008-05-05 14:07:30 51°12.524 2°48.509 63 13 63 14.2
2008-05-05 14:08:30 51°12.623 2°48.817 63.9 13 63 14.1
2008-05-05 14:09:30 51°12.719 2°49.127 66.1 13.1 66 13.9
2008-05-05 14:10:30 51°12.811 2°49.44 66.2 13 64 13.7
2008-05-05 14:11:30 51°12.922 2°49.738 57.7 13 58 13.6
2008-05-05 14:12:30 51°13.037 2°50.031 58.7 13.1 58 13.4
2008-05-05 14:13:30 51°13.151 2°50.326 57.5 13 58 13.3
2008-05-05 14:14:30 51°13.267 2°50.619 57.7 13.1 59 13.2
2008-05-05 14:15:30 51°13.383 2°50.913 56.2 13.1 56 13.1
2008-05-05 14:16:30 51°13.503 2°51.201 55.5 13 56 13
2008-05-05 14:17:30 51°13.623 2°51.49 55.9 13.1 57 12.8
2008-05-05 14:18:30 51°13.741 2°51.782 56.5 13.1 57 12.6
2008-05-05 14:19:30 51°13.856 2°52.065 55.6 11.2 58 12.4
2008-05-05 14:20:30 51°13.933 2°52.306 65.3 9.8 67 12.5
2008-05-05 14:21:30 51°13.989 2°52.547 69.3 9.6 70 12.6
2008-05-05 14:22:30 51°14.043 2°52.786 71 9.5 71 12.5
2008-05-05 14:23:30 51°14.097 2°53.022 69.7 9.5 71 12.4
2008-05-05 14:24:30 51°14.152 2°53.25 67.6 8 68 11.9
2008-05-05 14:25:30 51°14.193 2°53.398 61.5 4.9 63 11.7
2008-05-05 14:26:30 51°14.224 2°53.506 65.9 4.5 69 11.6
2008-05-05 14:27:30 51°14.25 2°53.621 68.2 4.7 71 11.5
2008-05-05 14:28:30 51°14.276 2°53.737 67.3 4.7 69 11.4
2008-05-05 14:29:30 51°14.304 2°53.854 66.6 4.7 69 11.3
2008-05-05 14:30:30 51°14.332 2°53.971 66.7 4.7 69 11.1
2008-05-05 14:31:30 51°14.361 2°54.087 66.6 4.7 69 11.1
2008-05-05 14:32:30 51°14.389 2°54.203 66.6 4.6 69 11.1
2008-05-05 14:33:30 51°14.407 2°54.271 56.2 1.2 67 11.1
2008-05-05 14:34:30 51°14.412 2°54.296 56.5 0.9 71 11.2
2008-05-05 14:35:30 51°14.414 2°54.315 66 0.6 85 11.2
2008-05-05 14:36:30 51°14.413 2°54.33 81.5 0.5 101 11.2
2008-05-05 14:37:30 51°14.42 2°54.458 84.6 8.1 88 11.8
2008-05-05 14:38:30 51°14.416 2°54.691 95.2 8.9 97 11.9
2008-05-05 14:39:30 51°14.387 2°54.917 104.1 8.6 107 11.8
2008-05-05 14:40:30 51°14.327 2°55.122 118.5 8.4 124 12.6
2008-05-05 14:41:30 51°14.239 2°55.293 131.6 8.3 136 12.2
2008-05-05 14:42:30 51°14.129 2°55.424 148.7 8.1 150 4.9
2008-05-05 14:43:30 51°14.015 2°55.509 155.2 6.3 158 -999
2008-05-05 14:44:30 51°13.931 2°55.569 155.7 4.9 156 -999
2008-05-05 14:45:30 51°13.868 2°55.608 158.7 3.4 159 -999
2008-05-05 14:46:30 51°13.828 2°55.638 148.2 1.8 150 4.8
2008-05-05 14:47:30 51°13.804 2°55.662 147.8 1.5 151 4.8
2008-05-05 14:48:30 51°13.781 2°55.683 140.3 1.4 145 -999
2008-05-05 14:49:30 51°13.764 2°55.703 134.3 1.5 137 -999
2008-05-05 14:50:30 51°13.741 2°55.745 127.6 2.5 130 -999
2008-05-05 14:51:30 51°13.708 2°55.807 124.7 3.5 130 -999
2008-05-05 14:52:30 51°13.675 2°55.894 110.9 3.8 112 4.8
2008-05-05 14:53:30 51°13.662 2°55.95 111.4 0.5 126 7.7